VAM | Vabird-VBD

Virtual Vabird! Aerolínea Virtual de habla hispana, desde 2011




 INFORMACIÓN METAR y TAF
METAR FOR LECO
ADDS - METARS form results

(1143 UTC 12 April 2021)
Data provider http://aviationweather.gov/metar/data/
 
METAR text: LECO 121130Z 14008KT 080V190 CAVOK 16/03 Q1023 NOSIG
Conditions at: LECO (LA CORUNA/ALVEDR, ES) observed 1130 UTC 12 April 2021
Temperature: 16.0°C (61°F)
Dewpoint: 3.0°C (37°F) [RH = 42%]
Pressure (altimeter): 30.21 inches Hg (1023.0 mb)
Winds: from the SE (140 degrees) at 9 MPH (8 knots; 4.1 m/s)
Visibility: 6 or more miles (10+ km)
Ceiling: ceiling and visibility are OK
Clouds: unknown
Weather: no significant weather observed at this time

METAR text: LECO 121100Z 15010KT 120V200 CAVOK 16/03 Q1023 NOSIG
Conditions at: LECO (LA CORUNA/ALVEDR, ES) observed 1100 UTC 12 April 2021
Temperature: 16.0°C (61°F)
Dewpoint: 3.0°C (37°F) [RH = 42%]
Pressure (altimeter): 30.21 inches Hg (1023.0 mb)
Winds: from the SSE (150 degrees) at 12 MPH (10 knots; 5.1 m/s)
Visibility: 6 or more miles (10+ km)
Ceiling: ceiling and visibility are OK
Clouds: unknown
Weather: no significant weather observed at this time

Forecast for: AMD
Text: TAF AMD LECO 121058Z 1210/1309 11009KT CAVOK TX19/1215Z TN08/1303Z
Forecast period: 1000 UTC 12 April 2021 to 0900 UTC 13 April 2021
Forecast type: FROM: standard forecast or significant change
Winds: from the ESE (110 degrees) at 10 MPH (9 knots; 4.6 m/s)
Visibility: 6 or more miles (10+ km)
Ceiling: unknown
Clouds: missing
Weather: no significant weather forecast for this period
Text: PROB30
Forecast period: 1500 to 1900 UTC 12 April 2021
Forecast type: TEMPORARY: The following changes expected for less than half the time period
Winds: from the NNE (30 degrees) at 12 MPH (10 knots; 5.1 m/s)
Visibility: missing
Ceiling: unknown
Clouds: missing
Weather: no significant weather forecast for this period

 MAPA DE AEROPUERTO

 INFORMACIÓN DE PISTA